Accueil
METAR-TAF:

METAR-TAF

Aéroports :

Aéroport international Mallam Aminu Kano

Kano, Nigeria

latitude: 12-03N, longitude: 008-32E, altitude: 476 m

Observation

Le bulletin a été fait il y a 17 minutes, à 19:00 UTC
Vent calme
Température 35°C
Humidité 20%
Pression 1011 hPa
Visibilité 10 km ou plus
pas de nuages en-dessous de 1500 mètres et pas de cumulonimbus.

METAR: DNKN 061900Z 00000KT CAVOK 35/09 Q1011 NOSIG

Heure: 20:17 (19:17 UTC)

Prévision

Le bulletin a été fait il y a 2 heures et 17 minutes, à 17:00 UTC
Prévision valable du 06 à 18 UTC au 07 à 24 UTC
Vent 5 kt de sud
Visibilité 10 km ou plus
Quelques nuages à une hauteur de 1400 ft
Probabilité 30% :
Temporairement
du 06 à 22 UTC au 07 à 03 UTC
Nuages épars à une hauteur de 1300 ft
Quelques nuages à une hauteur de 2000 ft, Cumulonimbus.
orage

TAF: DNKN 061700Z 0618/0724 19005KT 9999 FEW014 PROB30 TEMPO 0622/0703 TS SCT013 FEW020CB

Observations et prévisions météorologiques de plus de 4000 aéroports (messages METAR et TAF).

Les stations disponibles sont représentées par des disques jaunes et rouges sur la carte.

Passer la souris dessus pour voir le nom de la station.

Cliquer dessus pour voir les observations et prévisions météorologiques.

Pour changer de carte: cliquez sur les boutons verts avec une croix noire pour zoomer, sur le bouton vert avec un tiret pour effectuer un zoom arrière, ou sur les flèches vertes pour les cartes adjacentes.


METAR-TAF: